sensor_id;sensor_type;location;lat;lon;timestamp;P1;durP1;ratioP1;P2;durP2;ratioP2
71606;SDS011;60641;53.556;9.914;2024-01-30T00:00:06;13.60;;;7.60;;
71606;SDS011;60641;53.556;9.914;2024-01-30T00:02:34;17.00;;;7.60;;
71606;SDS011;60641;53.556;9.914;2024-01-30T00:05:00;13.70;;;7.50;;
71606;SDS011;60641;53.556;9.914;2024-01-30T00:07:27;16.00;;;8.30;;
71606;SDS011;60641;53.556;9.914;2024-01-30T00:09:54;13.80;;;8.00;;
71606;SDS011;60641;53.556;9.914;2024-01-30T00:12:20;18.10;;;7.90;;
71606;SDS011;60641;53.556;9.914;2024-01-30T00:14:47;15.20;;;8.00;;
71606;SDS011;60641;53.556;9.914;2024-01-30T00:17:13;15.40;;;7.40;;
71606;SDS011;60641;53.556;9.914;2024-01-30T00:19:40;16.10;;;8.40;;
71606;SDS011;60641;53.556;9.914;2024-01-30T00:22:07;14.50;;;8.00;;
71606;SDS011;60641;53.556;9.914;2024-01-30T00:24:34;15.40;;;7.90;;
71606;SDS011;60641;53.556;9.914;2024-01-30T00:27:00;14.10;;;8.00;;
71606;SDS011;60641;53.556;9.914;2024-01-30T00:29:27;15.60;;;7.80;;
71606;SDS011;60641;53.556;9.914;2024-01-30T00:31:56;13.90;;;7.40;;
71606;SDS011;60641;53.556;9.914;2024-01-30T00:34:23;15.60;;;7.60;;
71606;SDS011;60641;53.556;9.914;2024-01-30T00:36:49;13.30;;;7.10;;
71606;SDS011;60641;53.556;9.914;2024-01-30T00:39:15;15.40;;;7.20;;
71606;SDS011;60641;53.556;9.914;2024-01-30T00:41:42;14.10;;;7.60;;
71606;SDS011;60641;53.556;9.914;2024-01-30T00:44:09;15.30;;;7.80;;
71606;SDS011;60641;53.556;9.914;2024-01-30T00:46:35;13.80;;;7.80;;
71606;SDS011;60641;53.556;9.914;2024-01-30T00:49:01;14.30;;;7.80;;
71606;SDS011;60641;53.556;9.914;2024-01-30T00:51:28;14.90;;;7.60;;
71606;SDS011;60641;53.556;9.914;2024-01-30T00:53:55;14.40;;;7.50;;
71606;SDS011;60641;53.556;9.914;2024-01-30T00:56:22;15.80;;;8.00;;
71606;SDS011;60641;53.556;9.914;2024-01-30T00:58:50;14.70;;;8.00;;
71606;SDS011;60641;53.556;9.914;2024-01-30T01:01:16;13.90;;;7.90;;
71606;SDS011;60641;53.556;9.914;2024-01-30T01:03:43;14.20;;;7.40;;
71606;SDS011;60641;53.556;9.914;2024-01-30T01:06:10;13.70;;;7.50;;
71606;SDS011;60641;53.556;9.914;2024-01-30T01:08:36;12.80;;;7.40;;
71606;SDS011;60641;53.556;9.914;2024-01-30T01:11:03;13.30;;;7.40;;
71606;SDS011;60641;53.556;9.914;2024-01-30T01:13:29;15.60;;;7.40;;
71606;SDS011;60641;53.556;9.914;2024-01-30T01:15:56;13.50;;;8.10;;
71606;SDS011;60641;53.556;9.914;2024-01-30T01:18:22;14.40;;;7.70;;
71606;SDS011;60641;53.556;9.914;2024-01-30T01:20:49;16.20;;;7.60;;
71606;SDS011;60641;53.556;9.914;2024-01-30T01:23:15;13.30;;;7.40;;
71606;SDS011;60641;53.556;9.914;2024-01-30T01:25:41;12.90;;;7.30;;
71606;SDS011;60641;53.556;9.914;2024-01-30T01:28:08;14.90;;;7.00;;
71606;SDS011;60641;53.556;9.914;2024-01-30T01:30:34;16.50;;;7.30;;
71606;SDS011;60641;53.556;9.914;2024-01-30T01:33:01;14.60;;;7.20;;
71606;SDS011;60641;53.556;9.914;2024-01-30T01:35:28;12.30;;;7.00;;
71606;SDS011;60641;53.556;9.914;2024-01-30T01:37:55;13.80;;;7.60;;
71606;SDS011;60641;53.556;9.914;2024-01-30T01:40:22;14.70;;;7.50;;
71606;SDS011;60641;53.556;9.914;2024-01-30T01:42:50;14.50;;;7.30;;
71606;SDS011;60641;53.556;9.914;2024-01-30T01:45:18;13.50;;;7.40;;
71606;SDS011;60641;53.556;9.914;2024-01-30T01:47:45;12.00;;;7.20;;
71606;SDS011;60641;53.556;9.914;2024-01-30T01:50:14;13.90;;;7.70;;
71606;SDS011;60641;53.556;9.914;2024-01-30T01:52:44;13.80;;;7.10;;
71606;SDS011;60641;53.556;9.914;2024-01-30T01:55:14;15.10;;;7.20;;
71606;SDS011;60641;53.556;9.914;2024-01-30T01:57:41;14.20;;;7.60;;
71606;SDS011;60641;53.556;9.914;2024-01-30T02:00:08;12.60;;;6.70;;
71606;SDS011;60641;53.556;9.914;2024-01-30T02:02:36;14.40;;;7.10;;
71606;SDS011;60641;53.556;9.914;2024-01-30T02:05:03;13.80;;;7.00;;
71606;SDS011;60641;53.556;9.914;2024-01-30T02:07:30;12.80;;;6.60;;
71606;SDS011;60641;53.556;9.914;2024-01-30T02:09:58;12.90;;;6.40;;
71606;SDS011;60641;53.556;9.914;2024-01-30T02:12:24;12.10;;;6.60;;
71606;SDS011;60641;53.556;9.914;2024-01-30T02:14:51;12.10;;;6.50;;
71606;SDS011;60641;53.556;9.914;2024-01-30T02:17:17;17.70;;;6.80;;
71606;SDS011;60641;53.556;9.914;2024-01-30T02:19:44;12.50;;;6.30;;
71606;SDS011;60641;53.556;9.914;2024-01-30T02:22:11;15.70;;;7.10;;
71606;SDS011;60641;53.556;9.914;2024-01-30T02:24:37;12.40;;;6.60;;
71606;SDS011;60641;53.556;9.914;2024-01-30T02:27:03;13.00;;;7.00;;
71606;SDS011;60641;53.556;9.914;2024-01-30T02:29:30;12.40;;;6.20;;
71606;SDS011;60641;53.556;9.914;2024-01-30T02:31:57;12.60;;;6.20;;
71606;SDS011;60641;53.556;9.914;2024-01-30T02:34:23;15.50;;;6.20;;
71606;SDS011;60641;53.556;9.914;2024-01-30T02:36:50;12.80;;;6.00;;
71606;SDS011;60641;53.556;9.914;2024-01-30T02:39:16;11.10;;;6.10;;
71606;SDS011;60641;53.556;9.914;2024-01-30T02:41:42;14.50;;;6.10;;
71606;SDS011;60641;53.556;9.914;2024-01-30T02:44:09;13.90;;;5.50;;
71606;SDS011;60641;53.556;9.914;2024-01-30T02:46:35;11.80;;;5.80;;
71606;SDS011;60641;53.556;9.914;2024-01-30T02:49:02;11.40;;;5.80;;
71606;SDS011;60641;53.556;9.914;2024-01-30T02:51:28;12.80;;;5.80;;
71606;SDS011;60641;53.556;9.914;2024-01-30T02:53:55;12.20;;;6.10;;
71606;SDS011;60641;53.556;9.914;2024-01-30T02:56:21;11.90;;;6.20;;
71606;SDS011;60641;53.556;9.914;2024-01-30T02:58:48;13.00;;;5.50;;
71606;SDS011;60641;53.556;9.914;2024-01-30T03:01:14;12.50;;;7.00;;
71606;SDS011;60641;53.556;9.914;2024-01-30T03:03:41;11.70;;;6.00;;
71606;SDS011;60641;53.556;9.914;2024-01-30T03:06:08;13.60;;;6.10;;
71606;SDS011;60641;53.556;9.914;2024-01-30T03:08:35;13.10;;;6.40;;
71606;SDS011;60641;53.556;9.914;2024-01-30T03:11:01;11.20;;;6.10;;
71606;SDS011;60641;53.556;9.914;2024-01-30T03:13:27;13.60;;;5.60;;
71606;SDS011;60641;53.556;9.914;2024-01-30T03:15:54;11.10;;;5.70;;
71606;SDS011;60641;53.556;9.914;2024-01-30T03:18:20;13.00;;;6.30;;
71606;SDS011;60641;53.556;9.914;2024-01-30T03:20:47;12.20;;;6.30;;
71606;SDS011;60641;53.556;9.914;2024-01-30T03:23:13;13.70;;;6.00;;
71606;SDS011;60641;53.556;9.914;2024-01-30T03:25:40;12.50;;;6.20;;
71606;SDS011;60641;53.556;9.914;2024-01-30T03:28:07;12.60;;;6.20;;
71606;SDS011;60641;53.556;9.914;2024-01-30T03:30:34;12.50;;;6.20;;
71606;SDS011;60641;53.556;9.914;2024-01-30T03:33:00;12.00;;;6.30;;
71606;SDS011;60641;53.556;9.914;2024-01-30T03:35:27;11.40;;;6.20;;
71606;SDS011;60641;53.556;9.914;2024-01-30T03:37:54;13.20;;;6.00;;
71606;SDS011;60641;53.556;9.914;2024-01-30T03:40:20;12.50;;;6.60;;
71606;SDS011;60641;53.556;9.914;2024-01-30T03:42:46;13.70;;;6.60;;
71606;SDS011;60641;53.556;9.914;2024-01-30T03:45:13;12.90;;;6.40;;
71606;SDS011;60641;53.556;9.914;2024-01-30T03:47:39;11.80;;;5.90;;
71606;SDS011;60641;53.556;9.914;2024-01-30T03:50:06;13.50;;;6.30;;
71606;SDS011;60641;53.556;9.914;2024-01-30T03:52:33;12.20;;;6.50;;
71606;SDS011;60641;53.556;9.914;2024-01-30T03:54:59;12.20;;;6.60;;
71606;SDS011;60641;53.556;9.914;2024-01-30T03:57:26;12.10;;;6.70;;
71606;SDS011;60641;53.556;9.914;2024-01-30T03:59:52;14.30;;;6.80;;
71606;SDS011;60641;53.556;9.914;2024-01-30T04:02:19;12.60;;;6.50;;
71606;SDS011;60641;53.556;9.914;2024-01-30T04:04:46;12.80;;;6.60;;
71606;SDS011;60641;53.556;9.914;2024-01-30T04:07:12;13.90;;;6.70;;
71606;SDS011;60641;53.556;9.914;2024-01-30T04:09:39;14.20;;;6.70;;
71606;SDS011;60641;53.556;9.914;2024-01-30T04:12:06;13.70;;;6.90;;
71606;SDS011;60641;53.556;9.914;2024-01-30T04:14:32;13.00;;;6.80;;
71606;SDS011;60641;53.556;9.914;2024-01-30T04:16:59;14.80;;;7.10;;
71606;SDS011;60641;53.556;9.914;2024-01-30T04:19:25;13.90;;;6.60;;
71606;SDS011;60641;53.556;9.914;2024-01-30T04:21:52;15.30;;;6.80;;
71606;SDS011;60641;53.556;9.914;2024-01-30T04:24:18;14.40;;;7.30;;
71606;SDS011;60641;53.556;9.914;2024-01-30T04:26:59;16.10;;;6.60;;
71606;SDS011;60641;53.556;9.914;2024-01-30T04:29:26;13.20;;;6.10;;
71606;SDS011;60641;53.556;9.914;2024-01-30T04:31:52;13.40;;;6.50;;
71606;SDS011;60641;53.556;9.914;2024-01-30T04:34:19;15.00;;;6.90;;
71606;SDS011;60641;53.556;9.914;2024-01-30T04:36:45;11.80;;;6.50;;
71606;SDS011;60641;53.556;9.914;2024-01-30T04:39:12;14.30;;;6.80;;
71606;SDS011;60641;53.556;9.914;2024-01-30T04:41:39;13.00;;;6.30;;
71606;SDS011;60641;53.556;9.914;2024-01-30T04:44:05;12.90;;;6.60;;
71606;SDS011;60641;53.556;9.914;2024-01-30T04:46:32;13.80;;;6.50;;
71606;SDS011;60641;53.556;9.914;2024-01-30T04:49:00;14.50;;;6.90;;
71606;SDS011;60641;53.556;9.914;2024-01-30T04:51:27;12.80;;;6.90;;
71606;SDS011;60641;53.556;9.914;2024-01-30T04:53:53;14.40;;;7.20;;
71606;SDS011;60641;53.556;9.914;2024-01-30T04:56:20;12.10;;;6.80;;
71606;SDS011;60641;53.556;9.914;2024-01-30T04:58:46;13.80;;;7.40;;
71606;SDS011;60641;53.556;9.914;2024-01-30T05:01:16;12.40;;;6.70;;
71606;SDS011;60641;53.556;9.914;2024-01-30T05:03:43;14.60;;;7.40;;
71606;SDS011;60641;53.556;9.914;2024-01-30T05:06:09;14.70;;;7.20;;
71606;SDS011;60641;53.556;9.914;2024-01-30T05:08:36;13.80;;;7.40;;
71606;SDS011;60641;53.556;9.914;2024-01-30T05:11:03;14.80;;;7.40;;
71606;SDS011;60641;53.556;9.914;2024-01-30T05:13:31;14.70;;;7.20;;
71606;SDS011;60641;53.556;9.914;2024-01-30T05:15:58;13.90;;;7.30;;
71606;SDS011;60641;53.556;9.914;2024-01-30T05:18:24;15.40;;;7.80;;
71606;SDS011;60641;53.556;9.914;2024-01-30T05:20:51;13.60;;;7.50;;
71606;SDS011;60641;53.556;9.914;2024-01-30T05:23:17;12.50;;;7.30;;
71606;SDS011;60641;53.556;9.914;2024-01-30T05:25:44;15.50;;;7.80;;
71606;SDS011;60641;53.556;9.914;2024-01-30T05:28:12;15.30;;;7.90;;
71606;SDS011;60641;53.556;9.914;2024-01-30T05:30:38;14.30;;;7.30;;
71606;SDS011;60641;53.556;9.914;2024-01-30T05:33:05;13.60;;;7.50;;
71606;SDS011;60641;53.556;9.914;2024-01-30T05:35:31;13.90;;;7.30;;
71606;SDS011;60641;53.556;9.914;2024-01-30T05:37:58;14.00;;;7.30;;
71606;SDS011;60641;53.556;9.914;2024-01-30T05:40:24;15.30;;;8.10;;
71606;SDS011;60641;53.556;9.914;2024-01-30T05:42:50;13.00;;;7.40;;
71606;SDS011;60641;53.556;9.914;2024-01-30T05:45:17;15.10;;;7.80;;
71606;SDS011;60641;53.556;9.914;2024-01-30T05:47:44;16.60;;;7.30;;
71606;SDS011;60641;53.556;9.914;2024-01-30T05:50:10;13.80;;;6.70;;
71606;SDS011;60641;53.556;9.914;2024-01-30T05:52:37;13.70;;;7.40;;
71606;SDS011;60641;53.556;9.914;2024-01-30T05:55:04;14.90;;;7.20;;
71606;SDS011;60641;53.556;9.914;2024-01-30T05:57:30;14.20;;;7.30;;
71606;SDS011;60641;53.556;9.914;2024-01-30T05:59:57;16.50;;;7.30;;
71606;SDS011;60641;53.556;9.914;2024-01-30T06:02:23;13.60;;;7.30;;
71606;SDS011;60641;53.556;9.914;2024-01-30T06:04:50;13.60;;;7.40;;
71606;SDS011;60641;53.556;9.914;2024-01-30T06:07:17;14.30;;;7.80;;
71606;SDS011;60641;53.556;9.914;2024-01-30T06:09:43;13.50;;;7.30;;
71606;SDS011;60641;53.556;9.914;2024-01-30T06:12:10;14.00;;;7.40;;
71606;SDS011;60641;53.556;9.914;2024-01-30T06:14:38;14.00;;;7.50;;
71606;SDS011;60641;53.556;9.914;2024-01-30T06:17:05;14.40;;;7.60;;
71606;SDS011;60641;53.556;9.914;2024-01-30T06:19:31;15.50;;;8.90;;
71606;SDS011;60641;53.556;9.914;2024-01-30T06:21:58;15.60;;;8.00;;
71606;SDS011;60641;53.556;9.914;2024-01-30T06:24:24;14.60;;;7.40;;
71606;SDS011;60641;53.556;9.914;2024-01-30T06:26:51;13.20;;;7.60;;
71606;SDS011;60641;53.556;9.914;2024-01-30T06:29:18;15.10;;;7.40;;
71606;SDS011;60641;53.556;9.914;2024-01-30T06:31:44;14.70;;;7.60;;
71606;SDS011;60641;53.556;9.914;2024-01-30T06:34:10;14.50;;;7.50;;
71606;SDS011;60641;53.556;9.914;2024-01-30T06:36:38;13.20;;;7.30;;
71606;SDS011;60641;53.556;9.914;2024-01-30T06:39:05;15.40;;;7.60;;
71606;SDS011;60641;53.556;9.914;2024-01-30T06:41:31;14.90;;;7.80;;
71606;SDS011;60641;53.556;9.914;2024-01-30T06:43:58;16.40;;;8.10;;
71606;SDS011;60641;53.556;9.914;2024-01-30T06:46:24;15.90;;;7.40;;
71606;SDS011;60641;53.556;9.914;2024-01-30T06:48:51;14.50;;;7.60;;
71606;SDS011;60641;53.556;9.914;2024-01-30T06:51:17;15.20;;;7.40;;
71606;SDS011;60641;53.556;9.914;2024-01-30T06:53:44;16.70;;;8.20;;
71606;SDS011;60641;53.556;9.914;2024-01-30T06:56:11;14.70;;;7.40;;
71606;SDS011;60641;53.556;9.914;2024-01-30T06:58:37;16.00;;;8.20;;
71606;SDS011;60641;53.556;9.914;2024-01-30T07:01:04;17.00;;;9.30;;
71606;SDS011;60641;53.556;9.914;2024-01-30T07:03:30;16.20;;;8.20;;
71606;SDS011;60641;53.556;9.914;2024-01-30T07:05:57;13.90;;;7.40;;
71606;SDS011;60641;53.556;9.914;2024-01-30T07:08:23;16.90;;;8.50;;
71606;SDS011;60641;53.556;9.914;2024-01-30T07:10:49;17.90;;;8.00;;
71606;SDS011;60641;53.556;9.914;2024-01-30T07:13:16;16.00;;;7.50;;
71606;SDS011;60641;53.556;9.914;2024-01-30T07:15:42;15.80;;;7.70;;
71606;SDS011;60641;53.556;9.914;2024-01-30T07:18:09;17.10;;;8.60;;
71606;SDS011;60641;53.556;9.914;2024-01-30T07:20:36;15.80;;;8.30;;
71606;SDS011;60641;53.556;9.914;2024-01-30T07:23:02;15.40;;;8.00;;
71606;SDS011;60641;53.556;9.914;2024-01-30T07:25:29;14.90;;;8.30;;
71606;SDS011;60641;53.556;9.914;2024-01-30T07:27:56;16.00;;;7.80;;
71606;SDS011;60641;53.556;9.914;2024-01-30T07:30:22;14.50;;;7.60;;
71606;SDS011;60641;53.556;9.914;2024-01-30T07:32:49;15.00;;;7.50;;
71606;SDS011;60641;53.556;9.914;2024-01-30T07:35:16;14.70;;;7.60;;
71606;SDS011;60641;53.556;9.914;2024-01-30T07:37:42;16.20;;;8.10;;
71606;SDS011;60641;53.556;9.914;2024-01-30T07:40:09;15.50;;;7.70;;
71606;SDS011;60641;53.556;9.914;2024-01-30T07:42:36;15.70;;;8.20;;
71606;SDS011;60641;53.556;9.914;2024-01-30T07:45:02;16.20;;;8.20;;
71606;SDS011;60641;53.556;9.914;2024-01-30T07:47:29;20.60;;;8.80;;
71606;SDS011;60641;53.556;9.914;2024-01-30T07:49:56;15.90;;;8.20;;
71606;SDS011;60641;53.556;9.914;2024-01-30T07:52:22;16.00;;;8.60;;
71606;SDS011;60641;53.556;9.914;2024-01-30T07:54:49;17.30;;;8.20;;
71606;SDS011;60641;53.556;9.914;2024-01-30T07:57:16;17.50;;;9.10;;
71606;SDS011;60641;53.556;9.914;2024-01-30T07:59:44;17.70;;;8.20;;
71606;SDS011;60641;53.556;9.914;2024-01-30T08:02:13;18.20;;;8.60;;
71606;SDS011;60641;53.556;9.914;2024-01-30T08:04:40;16.50;;;8.60;;
71606;SDS011;60641;53.556;9.914;2024-01-30T08:07:06;14.60;;;8.30;;
71606;SDS011;60641;53.556;9.914;2024-01-30T08:09:33;19.60;;;8.70;;
71606;SDS011;60641;53.556;9.914;2024-01-30T08:11:59;17.40;;;9.20;;
71606;SDS011;60641;53.556;9.914;2024-01-30T08:14:26;17.30;;;8.60;;
71606;SDS011;60641;53.556;9.914;2024-01-30T08:16:52;16.00;;;8.70;;
71606;SDS011;60641;53.556;9.914;2024-01-30T08:19:19;20.60;;;9.10;;
71606;SDS011;60641;53.556;9.914;2024-01-30T08:21:45;16.60;;;9.30;;
71606;SDS011;60641;53.556;9.914;2024-01-30T08:24:12;19.50;;;8.50;;
71606;SDS011;60641;53.556;9.914;2024-01-30T08:26:38;16.60;;;8.60;;
71606;SDS011;60641;53.556;9.914;2024-01-30T08:29:05;15.70;;;8.90;;
71606;SDS011;60641;53.556;9.914;2024-01-30T08:31:31;16.40;;;8.90;;
71606;SDS011;60641;53.556;9.914;2024-01-30T08:33:58;17.40;;;8.80;;
71606;SDS011;60641;53.556;9.914;2024-01-30T08:36:24;15.70;;;8.20;;
71606;SDS011;60641;53.556;9.914;2024-01-30T08:38:51;18.30;;;8.70;;
71606;SDS011;60641;53.556;9.914;2024-01-30T08:41:17;16.80;;;8.80;;
71606;SDS011;60641;53.556;9.914;2024-01-30T08:43:45;17.00;;;9.00;;
71606;SDS011;60641;53.556;9.914;2024-01-30T08:46:11;18.90;;;9.10;;
71606;SDS011;60641;53.556;9.914;2024-01-30T08:48:38;17.30;;;9.20;;
71606;SDS011;60641;53.556;9.914;2024-01-30T08:51:04;16.00;;;8.50;;
71606;SDS011;60641;53.556;9.914;2024-01-30T08:53:34;16.10;;;9.10;;
71606;SDS011;60641;53.556;9.914;2024-01-30T08:56:02;18.00;;;9.30;;
71606;SDS011;60641;53.556;9.914;2024-01-30T08:58:29;15.20;;;8.80;;
71606;SDS011;60641;53.556;9.914;2024-01-30T09:00:56;19.20;;;10.20;;
71606;SDS011;60641;53.556;9.914;2024-01-30T09:03:23;16.20;;;9.40;;
71606;SDS011;60641;53.556;9.914;2024-01-30T09:05:49;19.20;;;9.70;;
71606;SDS011;60641;53.556;9.914;2024-01-30T09:08:16;16.60;;;9.00;;
71606;SDS011;60641;53.556;9.914;2024-01-30T09:10:42;18.30;;;9.40;;
71606;SDS011;60641;53.556;9.914;2024-01-30T09:13:10;17.80;;;9.00;;
71606;SDS011;60641;53.556;9.914;2024-01-30T09:15:37;17.10;;;9.50;;
71606;SDS011;60641;53.556;9.914;2024-01-30T09:18:03;16.90;;;9.20;;
71606;SDS011;60641;53.556;9.914;2024-01-30T09:20:30;19.10;;;9.60;;
71606;SDS011;60641;53.556;9.914;2024-01-30T09:22:56;16.90;;;9.80;;
71606;SDS011;60641;53.556;9.914;2024-01-30T09:25:23;16.50;;;9.10;;
71606;SDS011;60641;53.556;9.914;2024-01-30T09:27:49;17.80;;;9.10;;
71606;SDS011;60641;53.556;9.914;2024-01-30T09:30:16;17.00;;;8.80;;
71606;SDS011;60641;53.556;9.914;2024-01-30T09:32:43;17.00;;;9.40;;
71606;SDS011;60641;53.556;9.914;2024-01-30T09:35:09;16.90;;;9.30;;
71606;SDS011;60641;53.556;9.914;2024-01-30T09:37:36;17.70;;;8.90;;
71606;SDS011;60641;53.556;9.914;2024-01-30T09:40:02;17.00;;;8.90;;
71606;SDS011;60641;53.556;9.914;2024-01-30T09:42:36;17.30;;;8.80;;
71606;SDS011;60641;53.556;9.914;2024-01-30T09:45:03;15.10;;;8.80;;
71606;SDS011;60641;53.556;9.914;2024-01-30T09:47:40;17.20;;;9.50;;
71606;SDS011;60641;53.556;9.914;2024-01-30T09:50:09;15.90;;;9.30;;
71606;SDS011;60641;53.556;9.914;2024-01-30T09:52:36;15.70;;;9.40;;
71606;SDS011;60641;53.556;9.914;2024-01-30T09:55:03;17.20;;;7.40;;
71606;SDS011;60641;53.556;9.914;2024-01-30T09:57:30;15.20;;;7.90;;
71606;SDS011;60641;53.556;9.914;2024-01-30T09:59:57;14.20;;;7.80;;
71606;SDS011;60641;53.556;9.914;2024-01-30T10:02:23;15.60;;;8.20;;
71606;SDS011;60641;53.556;9.914;2024-01-30T10:04:50;14.90;;;7.90;;
71606;SDS011;60641;53.556;9.914;2024-01-30T10:07:17;19.50;;;8.70;;
71606;SDS011;60641;53.556;9.914;2024-01-30T10:09:44;19.30;;;9.30;;
71606;SDS011;60641;53.556;9.914;2024-01-30T10:12:12;17.10;;;9.20;;
71606;SDS011;60641;53.556;9.914;2024-01-30T10:14:39;16.20;;;9.00;;
71606;SDS011;60641;53.556;9.914;2024-01-30T10:17:09;18.30;;;9.60;;
71606;SDS011;60641;53.556;9.914;2024-01-30T10:19:37;19.20;;;9.50;;
71606;SDS011;60641;53.556;9.914;2024-01-30T10:22:04;17.10;;;9.40;;
71606;SDS011;60641;53.556;9.914;2024-01-30T10:24:30;16.60;;;9.50;;
71606;SDS011;60641;53.556;9.914;2024-01-30T10:26:57;17.70;;;9.30;;
71606;SDS011;60641;53.556;9.914;2024-01-30T10:29:24;19.40;;;9.90;;
71606;SDS011;60641;53.556;9.914;2024-01-30T10:31:57;17.80;;;9.60;;
71606;SDS011;60641;53.556;9.914;2024-01-30T10:34:24;19.30;;;9.70;;
71606;SDS011;60641;53.556;9.914;2024-01-30T10:36:52;17.40;;;9.20;;
71606;SDS011;60641;53.556;9.914;2024-01-30T10:39:35;18.70;;;9.00;;
71606;SDS011;60641;53.556;9.914;2024-01-30T10:42:04;19.30;;;10.50;;
71606;SDS011;60641;53.556;9.914;2024-01-30T10:44:45;18.60;;;10.50;;
71606;SDS011;60641;53.556;9.914;2024-01-30T10:47:21;17.90;;;9.60;;
71606;SDS011;60641;53.556;9.914;2024-01-30T10:49:49;17.40;;;9.60;;
71606;SDS011;60641;53.556;9.914;2024-01-30T10:52:17;15.50;;;9.60;;
71606;SDS011;60641;53.556;9.914;2024-01-30T10:54:43;17.50;;;8.90;;
71606;SDS011;60641;53.556;9.914;2024-01-30T10:57:10;17.90;;;9.80;;
71606;SDS011;60641;53.556;9.914;2024-01-30T10:59:37;19.20;;;9.30;;
71606;SDS011;60641;53.556;9.914;2024-01-30T11:02:04;17.10;;;9.10;;
71606;SDS011;60641;53.556;9.914;2024-01-30T11:04:38;18.20;;;8.80;;
71606;SDS011;60641;53.556;9.914;2024-01-30T11:07:14;15.80;;;7.90;;
71606;SDS011;60641;53.556;9.914;2024-01-30T11:09:54;15.30;;;8.40;;
71606;SDS011;60641;53.556;9.914;2024-01-30T11:12:33;16.40;;;7.80;;
71606;SDS011;60641;53.556;9.914;2024-01-30T11:20:15;18.30;;;7.60;;
71606;SDS011;60641;53.556;9.914;2024-01-30T11:22:43;17.70;;;7.90;;
71606;SDS011;60641;53.556;9.914;2024-01-30T11:25:11;15.30;;;7.50;;
71606;SDS011;60641;53.556;9.914;2024-01-30T11:27:39;13.60;;;7.60;;
71606;SDS011;60641;53.556;9.914;2024-01-30T11:30:06;13.30;;;7.60;;
71606;SDS011;60641;53.556;9.914;2024-01-30T11:32:34;15.10;;;7.50;;
71606;SDS011;60641;53.556;9.914;2024-01-30T11:35:03;14.20;;;7.70;;
71606;SDS011;60641;53.556;9.914;2024-01-30T11:37:32;13.80;;;7.00;;
71606;SDS011;60641;53.556;9.914;2024-01-30T11:40:03;12.10;;;6.80;;
71606;SDS011;60641;53.556;9.914;2024-01-30T11:42:30;15.80;;;7.50;;
71606;SDS011;60641;53.556;9.914;2024-01-30T11:44:59;13.00;;;7.00;;
71606;SDS011;60641;53.556;9.914;2024-01-30T11:47:28;12.20;;;6.60;;
71606;SDS011;60641;53.556;9.914;2024-01-30T11:49:55;17.90;;;7.40;;
71606;SDS011;60641;53.556;9.914;2024-01-30T11:52:22;14.20;;;7.10;;
71606;SDS011;60641;53.556;9.914;2024-01-30T11:54:48;17.10;;;7.40;;
71606;SDS011;60641;53.556;9.914;2024-01-30T11:57:14;12.40;;;7.10;;
71606;SDS011;60641;53.556;9.914;2024-01-30T11:59:41;13.40;;;7.10;;
71606;SDS011;60641;53.556;9.914;2024-01-30T12:02:07;12.20;;;6.60;;
71606;SDS011;60641;53.556;9.914;2024-01-30T12:04:34;13.00;;;6.60;;
71606;SDS011;60641;53.556;9.914;2024-01-30T12:07:00;13.50;;;6.70;;
71606;SDS011;60641;53.556;9.914;2024-01-30T12:09:27;12.80;;;6.40;;
71606;SDS011;60641;53.556;9.914;2024-01-30T12:11:54;12.90;;;6.70;;
71606;SDS011;60641;53.556;9.914;2024-01-30T12:14:20;15.30;;;7.40;;
71606;SDS011;60641;53.556;9.914;2024-01-30T12:16:49;16.10;;;7.10;;
71606;SDS011;60641;53.556;9.914;2024-01-30T12:19:26;13.50;;;7.80;;
71606;SDS011;60641;53.556;9.914;2024-01-30T12:21:58;14.50;;;7.10;;
71606;SDS011;60641;53.556;9.914;2024-01-30T12:24:25;11.90;;;6.50;;
71606;SDS011;60641;53.556;9.914;2024-01-30T12:26:56;13.40;;;6.40;;
71606;SDS011;60641;53.556;9.914;2024-01-30T12:29:24;12.30;;;6.90;;
71606;SDS011;60641;53.556;9.914;2024-01-30T12:31:54;13.40;;;6.80;;
71606;SDS011;60641;53.556;9.914;2024-01-30T12:34:21;18.80;;;10.60;;
71606;SDS011;60641;53.556;9.914;2024-01-30T12:36:47;15.10;;;7.80;;
71606;SDS011;60641;53.556;9.914;2024-01-30T12:39:15;15.20;;;6.90;;
71606;SDS011;60641;53.556;9.914;2024-01-30T12:41:41;11.50;;;7.20;;
71606;SDS011;60641;53.556;9.914;2024-01-30T12:44:08;14.10;;;7.20;;
71606;SDS011;60641;53.556;9.914;2024-01-30T12:46:35;14.00;;;7.40;;
71606;SDS011;60641;53.556;9.914;2024-01-30T12:49:01;13.40;;;6.80;;
71606;SDS011;60641;53.556;9.914;2024-01-30T12:51:28;14.00;;;6.80;;
71606;SDS011;60641;53.556;9.914;2024-01-30T12:53:54;14.60;;;7.00;;
71606;SDS011;60641;53.556;9.914;2024-01-30T12:56:21;14.00;;;7.10;;
71606;SDS011;60641;53.556;9.914;2024-01-30T12:58:47;14.10;;;7.10;;
71606;SDS011;60641;53.556;9.914;2024-01-30T13:01:13;12.60;;;7.20;;
71606;SDS011;60641;53.556;9.914;2024-01-30T13:03:40;13.50;;;6.90;;
71606;SDS011;60641;53.556;9.914;2024-01-30T13:06:06;14.60;;;7.40;;
71606;SDS011;60641;53.556;9.914;2024-01-30T13:08:33;13.90;;;7.50;;
71606;SDS011;60641;53.556;9.914;2024-01-30T13:10:59;14.70;;;7.20;;
71606;SDS011;60641;53.556;9.914;2024-01-30T13:13:26;14.10;;;7.50;;
71606;SDS011;60641;53.556;9.914;2024-01-30T13:15:52;14.10;;;7.20;;
71606;SDS011;60641;53.556;9.914;2024-01-30T13:18:19;12.50;;;7.20;;
71606;SDS011;60641;53.556;9.914;2024-01-30T13:20:45;13.30;;;6.90;;
71606;SDS011;60641;53.556;9.914;2024-01-30T13:23:11;14.90;;;6.90;;
71606;SDS011;60641;53.556;9.914;2024-01-30T13:25:38;12.80;;;6.80;;
71606;SDS011;60641;53.556;9.914;2024-01-30T13:28:04;13.70;;;7.10;;
71606;SDS011;60641;53.556;9.914;2024-01-30T13:30:31;14.30;;;7.10;;
71606;SDS011;60641;53.556;9.914;2024-01-30T13:32:58;14.10;;;7.10;;
71606;SDS011;60641;53.556;9.914;2024-01-30T13:35:24;14.60;;;7.00;;
71606;SDS011;60641;53.556;9.914;2024-01-30T13:37:50;14.50;;;7.40;;
71606;SDS011;60641;53.556;9.914;2024-01-30T13:40:17;13.10;;;6.80;;
71606;SDS011;60641;53.556;9.914;2024-01-30T13:42:43;14.90;;;7.00;;
71606;SDS011;60641;53.556;9.914;2024-01-30T13:45:10;13.60;;;6.90;;
71606;SDS011;60641;53.556;9.914;2024-01-30T13:47:36;13.20;;;6.40;;
71606;SDS011;60641;53.556;9.914;2024-01-30T13:50:03;15.20;;;6.80;;
71606;SDS011;60641;53.556;9.914;2024-01-30T13:52:30;13.70;;;6.70;;
71606;SDS011;60641;53.556;9.914;2024-01-30T13:54:56;14.30;;;6.70;;
71606;SDS011;60641;53.556;9.914;2024-01-30T13:57:23;12.80;;;6.80;;
71606;SDS011;60641;53.556;9.914;2024-01-30T13:59:49;13.80;;;6.90;;
71606;SDS011;60641;53.556;9.914;2024-01-30T14:02:16;12.50;;;6.60;;
71606;SDS011;60641;53.556;9.914;2024-01-30T14:04:42;13.50;;;7.00;;
71606;SDS011;60641;53.556;9.914;2024-01-30T14:07:09;13.10;;;6.60;;
71606;SDS011;60641;53.556;9.914;2024-01-30T14:09:36;15.50;;;7.10;;
71606;SDS011;60641;53.556;9.914;2024-01-30T14:12:02;12.00;;;6.30;;
71606;SDS011;60641;53.556;9.914;2024-01-30T14:14:30;15.10;;;7.00;;
71606;SDS011;60641;53.556;9.914;2024-01-30T14:16:56;12.90;;;6.60;;
71606;SDS011;60641;53.556;9.914;2024-01-30T14:19:23;16.30;;;7.00;;
71606;SDS011;60641;53.556;9.914;2024-01-30T14:21:49;15.00;;;7.30;;
71606;SDS011;60641;53.556;9.914;2024-01-30T14:24:16;14.50;;;6.90;;
71606;SDS011;60641;53.556;9.914;2024-01-30T14:26:42;16.50;;;7.00;;
71606;SDS011;60641;53.556;9.914;2024-01-30T14:29:09;14.80;;;6.80;;
71606;SDS011;60641;53.556;9.914;2024-01-30T14:31:35;15.00;;;6.40;;
71606;SDS011;60641;53.556;9.914;2024-01-30T14:34:02;14.00;;;6.80;;
71606;SDS011;60641;53.556;9.914;2024-01-30T14:36:28;13.90;;;6.90;;